createdAt,value
2022-12-08T00:01:10.666Z,0.53
2022-12-08T00:02:44.394Z,0.43
2022-12-08T00:04:16.269Z,0.37
2022-12-08T00:06:08.103Z,0.29
2022-12-08T00:07:58.273Z,0.26
2022-12-08T00:09:37.910Z,0.21
2022-12-08T00:11:12.087Z,0.12
2022-12-08T00:12:43.785Z,0.06
2022-12-08T00:14:15.414Z,0.15
2022-12-08T00:15:47.007Z,0.17
2022-12-08T00:17:18.603Z,0.21
2022-12-08T00:18:50.211Z,0.28
2022-12-08T00:20:21.915Z,0.35
2022-12-08T00:21:55.004Z,0.34
2022-12-08T00:23:26.622Z,0.26
2022-12-08T00:24:58.344Z,0.25
2022-12-08T00:26:29.919Z,0.24
2022-12-08T00:28:01.562Z,0.30
2022-12-08T00:29:33.205Z,0.34
2022-12-08T00:31:07.643Z,0.23
2022-12-08T00:32:39.258Z,0.34
2022-12-08T00:34:11.885Z,0.30
2022-12-08T00:35:43.559Z,0.32
2022-12-08T00:37:16.576Z,0.36
2022-12-08T00:38:48.621Z,0.31
2022-12-08T00:40:20.214Z,0.40
2022-12-08T00:42:10.998Z,0.38
2022-12-08T00:43:42.641Z,0.33
2022-12-08T00:45:14.397Z,0.30
2022-12-08T00:46:46.215Z,0.40
2022-12-08T00:48:17.779Z,0.37
2022-12-08T00:49:49.328Z,0.38
2022-12-08T00:51:20.931Z,0.48
2022-12-08T00:52:53.891Z,0.51
2022-12-08T00:54:25.504Z,0.55
2022-12-08T00:55:57.131Z,0.54
2022-12-08T00:57:28.812Z,0.51
2022-12-08T00:59:00.456Z,0.45
2022-12-08T01:00:32.106Z,0.45
2022-12-08T01:02:03.772Z,0.34
2022-12-08T01:03:35.472Z,0.39
2022-12-08T01:05:07.831Z,0.43
2022-12-08T01:06:39.604Z,0.50
2022-12-08T01:08:12.583Z,0.51
2022-12-08T01:09:44.249Z,0.57
2022-12-08T01:11:16.967Z,0.51
2022-12-08T01:12:48.576Z,0.54
2022-12-08T01:14:20.280Z,0.48
2022-12-08T01:15:51.900Z,0.55
2022-12-08T01:17:23.522Z,0.58
2022-12-08T01:18:55.269Z,0.61
2022-12-08T01:20:26.901Z,0.54
2022-12-08T01:21:59.279Z,0.53
2022-12-08T01:23:32.253Z,0.53
2022-12-08T01:25:04.350Z,0.48
2022-12-08T01:26:35.994Z,0.50
2022-12-08T01:28:07.630Z,0.59
2022-12-08T01:29:39.266Z,0.61
2022-12-08T01:31:11.702Z,0.57
2022-12-08T01:32:43.618Z,0.43
2022-12-08T01:34:15.362Z,0.46
2022-12-08T01:35:47.007Z,0.56
2022-12-08T01:37:18.626Z,0.63
2022-12-08T01:38:51.672Z,0.54
2022-12-08T01:40:23.292Z,0.46
2022-12-08T01:41:54.939Z,0.55
2022-12-08T01:43:41.447Z,0.64
2022-12-08T01:45:13.951Z,0.76
2022-12-08T01:46:47.332Z,0.77
2022-12-08T01:48:21.093Z,0.67
2022-12-08T01:49:52.768Z,0.49
2022-12-08T01:51:24.410Z,0.38
2022-12-08T01:52:57.510Z,0.32
2022-12-08T01:54:31.808Z,0.38
2022-12-08T01:56:06.346Z,0.39
2022-12-08T01:57:40.969Z,0.43
2022-12-08T01:59:12.633Z,0.52
2022-12-08T02:00:44.280Z,0.57
2022-12-08T02:02:15.949Z,0.57
2022-12-08T02:03:48.414Z,0.51
2022-12-08T02:05:20.896Z,0.47
2022-12-08T02:06:52.494Z,0.47
2022-12-08T02:08:24.233Z,0.42
2022-12-08T02:09:57.278Z,0.50
2022-12-08T02:11:29.189Z,0.59
2022-12-08T02:13:00.791Z,0.61
2022-12-08T02:14:32.407Z,0.61
2022-12-08T02:16:07.108Z,0.71
2022-12-08T02:17:47.850Z,0.68
2022-12-08T02:19:49.721Z,0.62
2022-12-08T02:21:23.147Z,0.51
2022-12-08T02:22:57.791Z,0.53
2022-12-08T02:24:32.716Z,0.54
2022-12-08T02:26:49.356Z,0.57
2022-12-08T02:28:35.630Z,0.52
2022-12-08T02:30:15.577Z,0.49
2022-12-08T02:31:52.588Z,0.54
2022-12-08T02:34:11.715Z,0.60
2022-12-08T02:35:47.993Z,0.60
2022-12-08T02:37:23.067Z,0.56
2022-12-08T02:38:58.876Z,0.67
2022-12-08T02:40:32.460Z,0.59
2022-12-08T02:42:11.005Z,0.53
2022-12-08T02:43:43.875Z,0.50
2022-12-08T02:45:17.400Z,0.39
2022-12-08T02:46:52.385Z,0.37
2022-12-08T02:48:24.010Z,0.43
2022-12-08T02:49:55.809Z,0.47
2022-12-08T02:51:28.917Z,0.45
2022-12-08T02:53:02.117Z,0.48
2022-12-08T02:54:33.752Z,0.51
2022-12-08T02:56:11.500Z,0.51
2022-12-08T02:57:51.708Z,0.39
2022-12-08T02:59:28.069Z,0.45
2022-12-08T03:01:09.226Z,0.40
2022-12-08T03:02:48.396Z,0.45
2022-12-08T03:04:22.674Z,0.50
2022-12-08T03:05:57.977Z,0.58
2022-12-08T03:07:33.017Z,0.56
2022-12-08T03:09:07.282Z,0.54
2022-12-08T03:10:41.442Z,0.53
2022-12-08T03:12:14.295Z,0.50
2022-12-08T03:13:47.250Z,0.48
2022-12-08T03:15:19.580Z,0.50
2022-12-08T03:16:53.705Z,0.54
2022-12-08T03:18:27.039Z,0.53
2022-12-08T03:19:59.113Z,0.46
2022-12-08T03:21:30.735Z,0.51
2022-12-08T03:23:05.456Z,0.44
2022-12-08T03:24:37.858Z,0.47
2022-12-08T03:26:12.548Z,0.56
2022-12-08T03:27:44.154Z,0.58
2022-12-08T03:29:15.797Z,0.60
2022-12-08T03:30:47.720Z,0.59
2022-12-08T03:32:22.453Z,0.66
2022-12-08T03:33:54.703Z,0.63
2022-12-08T03:35:28.040Z,0.61
2022-12-08T03:37:00.489Z,0.56
2022-12-08T03:38:38.711Z,0.56
2022-12-08T03:40:11.933Z,0.59
2022-12-08T03:41:43.570Z,0.54
2022-12-08T03:43:15.191Z,0.57
2022-12-08T03:44:46.790Z,0.57
2022-12-08T03:46:18.758Z,0.55
2022-12-08T03:47:50.703Z,0.47
2022-12-08T03:49:22.350Z,0.40
2022-12-08T03:50:54.134Z,0.45
2022-12-08T03:52:25.804Z,0.59
2022-12-08T03:53:58.866Z,0.66
2022-12-08T03:55:30.468Z,0.63
2022-12-08T03:57:02.132Z,0.79
2022-12-08T03:58:37.355Z,0.68
2022-12-08T04:00:12.912Z,0.54
2022-12-08T04:01:44.676Z,0.57
2022-12-08T04:03:16.353Z,0.66
2022-12-08T04:04:48.152Z,0.69
2022-12-08T04:06:19.891Z,0.63
2022-12-08T04:07:51.580Z,0.46
2022-12-08T04:09:24.883Z,0.48
2022-12-08T04:10:56.571Z,0.60
2022-12-08T04:12:28.204Z,0.67
2022-12-08T04:13:59.787Z,0.72
2022-12-08T04:15:31.383Z,0.72
2022-12-08T04:17:03.011Z,0.72
2022-12-08T04:18:35.001Z,0.72
2022-12-08T04:20:07.497Z,0.65
2022-12-08T04:21:39.283Z,0.66
2022-12-08T04:23:12.210Z,0.56
2022-12-08T04:24:45.531Z,0.55
2022-12-08T04:26:17.347Z,0.55
2022-12-08T04:27:48.932Z,0.60
2022-12-08T04:29:20.534Z,0.66
2022-12-08T04:30:52.132Z,0.77
2022-12-08T04:32:23.792Z,0.76
2022-12-08T04:33:55.401Z,0.71
2022-12-08T04:35:27.354Z,0.65
2022-12-08T04:36:58.967Z,0.68
2022-12-08T04:38:30.598Z,0.65
2022-12-08T04:40:04.362Z,0.74
2022-12-08T04:41:38.887Z,0.76
2022-12-08T04:43:10.486Z,0.66
2022-12-08T04:44:44.819Z,0.57
2022-12-08T04:46:16.528Z,0.58
2022-12-08T04:47:51.313Z,0.54
2022-12-08T04:49:25.099Z,0.56
2022-12-08T04:50:56.893Z,0.57
2022-12-08T04:52:31.475Z,0.66
2022-12-08T04:54:06.136Z,0.67
2022-12-08T04:55:52.750Z,0.66
2022-12-08T04:57:24.358Z,0.76
2022-12-08T04:58:57.023Z,0.65
2022-12-08T05:00:28.780Z,0.74
2022-12-08T05:02:03.269Z,0.81
2022-12-08T05:03:35.034Z,0.58
2022-12-08T05:05:10.388Z,0.50
2022-12-08T05:06:43.607Z,0.67
2022-12-08T05:08:15.304Z,0.78
2022-12-08T05:09:46.983Z,0.59
2022-12-08T05:11:25.003Z,0.57
2022-12-08T05:12:57.851Z,0.56
2022-12-08T05:14:31.760Z,0.65
2022-12-08T05:16:04.563Z,0.69
2022-12-08T05:17:36.212Z,0.61
2022-12-08T05:19:07.900Z,0.50
2022-12-08T05:20:39.558Z,0.51
2022-12-08T05:22:11.252Z,0.48
2022-12-08T05:23:45.711Z,0.41
2022-12-08T05:25:17.491Z,0.47
2022-12-08T05:26:50.554Z,0.48
2022-12-08T05:28:42.741Z,0.52
2022-12-08T05:30:15.279Z,0.64
2022-12-08T05:31:49.536Z,0.71
2022-12-08T05:33:21.359Z,0.82
2022-12-08T05:34:52.986Z,0.74
2022-12-08T05:36:24.595Z,0.58
2022-12-08T05:37:58.361Z,0.67
2022-12-08T05:39:32.566Z,0.82
2022-12-08T05:41:04.309Z,0.80
2022-12-08T05:42:48.802Z,0.68
2022-12-08T05:44:28.610Z,0.57
2022-12-08T05:46:03.146Z,0.60
2022-12-08T05:47:36.281Z,0.70
2022-12-08T05:49:08.188Z,0.72
2022-12-08T05:50:39.891Z,0.59
2022-12-08T05:52:11.702Z,0.61
2022-12-08T05:53:43.339Z,0.63
2022-12-08T05:55:17.893Z,0.59
2022-12-08T05:56:51.737Z,0.66
2022-12-08T05:58:26.001Z,0.62
2022-12-08T06:00:02.233Z,0.52
2022-12-08T06:01:34.206Z,0.53
2022-12-08T06:03:05.989Z,0.59
2022-12-08T06:04:40.206Z,0.60
2022-12-08T06:06:12.001Z,0.62
2022-12-08T06:07:43.801Z,0.62
2022-12-08T06:09:15.552Z,0.62
2022-12-08T06:11:02.645Z,0.61
2022-12-08T06:12:34.325Z,0.58
2022-12-08T06:14:10.253Z,0.59
2022-12-08T06:15:42.023Z,0.57
2022-12-08T06:17:13.842Z,0.59
2022-12-08T06:18:48.146Z,0.56
2022-12-08T06:20:19.841Z,0.65
2022-12-08T06:22:00.923Z,0.67
2022-12-08T06:23:32.788Z,0.58
2022-12-08T06:25:10.103Z,0.57
2022-12-08T06:26:45.072Z,0.57
2022-12-08T06:28:19.433Z,0.68
2022-12-08T06:29:54.502Z,0.77
2022-12-08T06:31:29.122Z,0.68
2022-12-08T06:33:02.893Z,0.74
2022-12-08T06:34:35.763Z,0.78
2022-12-08T06:36:07.640Z,0.80
2022-12-08T06:37:39.410Z,0.81
2022-12-08T06:39:11.275Z,0.76
2022-12-08T06:40:43.111Z,0.68
2022-12-08T06:42:33.235Z,0.66
2022-12-08T06:44:05.156Z,0.67
2022-12-08T06:45:40.647Z,0.74
2022-12-08T06:47:12.327Z,0.71
2022-12-08T06:48:43.966Z,0.68
2022-12-08T06:50:15.617Z,0.77
2022-12-08T06:51:50.121Z,0.67
2022-12-08T06:53:21.758Z,0.77
2022-12-08T06:54:53.382Z,0.77
2022-12-08T06:56:28.050Z,0.77
2022-12-08T06:57:59.683Z,0.74
2022-12-08T06:59:31.395Z,0.66
2022-12-08T07:01:08.542Z,0.63
2022-12-08T07:02:40.321Z,0.66
2022-12-08T07:04:11.992Z,0.71
2022-12-08T07:05:43.612Z,0.63
2022-12-08T07:07:15.274Z,0.63
2022-12-08T07:08:46.870Z,0.68
2022-12-08T07:10:18.617Z,0.72
2022-12-08T07:11:50.292Z,0.70
2022-12-08T07:13:21.937Z,0.71
2022-12-08T07:14:53.564Z,0.80
2022-12-08T07:16:26.720Z,0.71
2022-12-08T07:18:00.263Z,0.68
2022-12-08T07:19:32.709Z,0.53
2022-12-08T07:21:05.708Z,0.62
2022-12-08T07:22:37.376Z,0.62
2022-12-08T07:24:09.065Z,0.70
2022-12-08T07:25:40.770Z,0.70
2022-12-08T07:27:12.369Z,0.69
2022-12-08T07:28:44.229Z,0.72
2022-12-08T07:30:16.011Z,0.76
2022-12-08T07:31:49.172Z,0.73
2022-12-08T07:33:20.904Z,0.70
2022-12-08T07:34:55.594Z,0.70
2022-12-08T07:36:27.275Z,0.68
2022-12-08T07:37:58.944Z,0.73
2022-12-08T07:39:30.602Z,0.71
2022-12-08T07:41:02.263Z,0.72
2022-12-08T07:42:37.107Z,0.78
2022-12-08T07:44:08.891Z,0.83
2022-12-08T07:45:43.063Z,0.87
2022-12-08T07:47:49.653Z,0.80
2022-12-08T07:49:19.752Z,0.79
2022-12-08T07:50:51.372Z,0.79
2022-12-08T07:52:48.502Z,0.83
2022-12-08T07:54:20.151Z,0.89
2022-12-08T07:55:54.194Z,0.86
2022-12-08T07:57:25.921Z,0.96
2022-12-08T07:58:57.611Z,1.02
2022-12-08T08:00:29.353Z,1.05
2022-12-08T08:02:22.783Z,1.01
2022-12-08T08:03:54.705Z,0.96
2022-12-08T08:05:26.303Z,0.98
2022-12-08T08:06:57.990Z,1.03
2022-12-08T08:08:29.735Z,1.01
2022-12-08T08:10:06.009Z,1.04
2022-12-08T08:11:37.823Z,1.07
2022-12-08T08:13:14.588Z,0.99
2022-12-08T08:14:51.645Z,0.94
2022-12-08T08:16:23.418Z,1.07
2022-12-08T08:17:55.134Z,1.12
2022-12-08T08:19:28.431Z,1.14
2022-12-08T08:21:06.688Z,1.15
2022-12-08T08:22:52.060Z,1.22
2022-12-08T08:24:24.408Z,1.13
2022-12-08T08:25:58.352Z,1.17
2022-12-08T08:27:30.015Z,1.25
2022-12-08T08:29:01.658Z,1.27
2022-12-08T08:30:33.366Z,1.33
2022-12-08T08:32:05.080Z,1.35
2022-12-08T08:33:36.720Z,1.29
2022-12-08T08:35:12.576Z,1.30
2022-12-08T08:36:44.229Z,1.32
2022-12-08T08:38:15.914Z,1.31
2022-12-08T08:39:47.637Z,1.32
2022-12-08T08:41:19.265Z,1.39
2022-12-08T08:42:50.894Z,1.38
2022-12-08T08:44:22.559Z,1.43
2022-12-08T08:45:55.187Z,1.41
2022-12-08T08:47:26.811Z,1.39
2022-12-08T08:48:58.492Z,1.41
2022-12-08T08:50:37.212Z,1.37
2022-12-08T08:52:09.276Z,1.42
2022-12-08T08:53:41.060Z,1.45
2022-12-08T08:55:12.696Z,1.44
2022-12-08T08:56:44.310Z,1.44
2022-12-08T08:58:15.974Z,1.49
2022-12-08T08:59:47.592Z,1.43
2022-12-08T09:01:21.041Z,1.35
2022-12-08T09:02:52.737Z,1.33
2022-12-08T09:04:25.631Z,1.32
2022-12-08T09:05:58.827Z,1.29
2022-12-08T09:07:33.211Z,1.35
2022-12-08T09:09:04.939Z,1.38
2022-12-08T09:10:36.619Z,1.39
2022-12-08T09:12:08.552Z,1.51
2022-12-08T09:13:42.463Z,1.52
2022-12-08T09:15:14.287Z,1.62
2022-12-08T09:16:46.114Z,1.63
2022-12-08T09:18:17.829Z,1.69
2022-12-08T09:19:49.488Z,1.62
2022-12-08T09:21:23.749Z,1.70
2022-12-08T09:22:55.412Z,1.76
2022-12-08T09:24:27.157Z,1.64
2022-12-08T09:25:58.821Z,1.72
2022-12-08T09:27:31.157Z,1.78
2022-12-08T09:29:05.626Z,1.83
2022-12-08T09:30:40.113Z,1.71
2022-12-08T09:32:11.758Z,1.73
2022-12-08T09:33:43.498Z,1.73
2022-12-08T09:35:15.708Z,1.80
2022-12-08T09:36:48.788Z,1.75
2022-12-08T09:38:20.448Z,1.72
2022-12-08T09:39:52.220Z,1.83
2022-12-08T09:41:38.814Z,1.87
2022-12-08T09:43:22.952Z,1.87
2022-12-08T09:44:57.330Z,1.88
2022-12-08T09:46:29.763Z,1.91
2022-12-08T09:48:06.941Z,1.90
2022-12-08T09:49:47.610Z,1.83
2022-12-08T09:51:19.411Z,1.86
2022-12-08T09:53:02.441Z,1.79
2022-12-08T09:54:35.169Z,1.83
2022-12-08T09:56:10.303Z,1.90
2022-12-08T09:57:45.141Z,1.87
2022-12-08T09:59:24.161Z,1.91
2022-12-08T10:00:55.966Z,1.93
2022-12-08T10:02:29.069Z,1.98
2022-12-08T10:04:00.784Z,2.00
2022-12-08T10:05:32.482Z,1.93
2022-12-08T10:07:05.581Z,2.02
2022-12-08T10:08:41.939Z,2.01
2022-12-08T10:10:21.478Z,2.12
2022-12-08T10:11:55.866Z,2.20
2022-12-08T10:13:32.140Z,2.25
2022-12-08T10:15:11.602Z,2.26
2022-12-08T10:16:48.357Z,2.24
2022-12-08T10:18:23.286Z,2.00
2022-12-08T10:19:57.999Z,1.94
2022-12-08T10:21:29.713Z,1.97
2022-12-08T10:23:07.615Z,1.97
2022-12-08T10:24:42.801Z,2.05
2022-12-08T10:26:20.288Z,1.94
2022-12-08T10:27:53.939Z,2.03
2022-12-08T10:29:28.992Z,2.09
2022-12-08T10:31:02.391Z,2.03
2022-12-08T10:32:35.138Z,2.02
2022-12-08T10:34:14.789Z,2.14
2022-12-08T10:35:47.525Z,2.15
2022-12-08T10:37:19.313Z,2.09
2022-12-08T10:38:51.169Z,2.13
2022-12-08T10:40:29.428Z,2.21
2022-12-08T10:42:03.242Z,2.12
2022-12-08T10:43:36.396Z,2.18
2022-12-08T10:45:21.977Z,2.22
2022-12-08T10:46:53.903Z,2.16
2022-12-08T10:48:27.813Z,2.10
2022-12-08T10:50:07.805Z,2.02
2022-12-08T10:51:42.792Z,2.11
2022-12-08T10:53:15.630Z,2.25
2022-12-08T10:54:49.818Z,2.13
2022-12-08T10:56:28.815Z,2.10
2022-12-08T10:58:02.907Z,2.22
2022-12-08T10:59:34.736Z,2.23
2022-12-08T11:01:13.498Z,2.15
2022-12-08T11:02:56.799Z,2.33
2022-12-08T11:04:31.986Z,2.41
2022-12-08T11:06:12.034Z,2.07
2022-12-08T11:07:46.995Z,2.11
2022-12-08T11:09:24.325Z,2.04
2022-12-08T11:10:55.978Z,2.16
2022-12-08T11:12:30.028Z,2.29
2022-12-08T11:14:01.682Z,2.37
2022-12-08T11:15:36.468Z,2.27
2022-12-08T11:17:09.300Z,2.38
2022-12-08T11:18:42.082Z,2.44
2022-12-08T11:20:21.153Z,2.57
2022-12-08T11:21:52.802Z,2.55
2022-12-08T11:23:25.314Z,2.46
2022-12-08T11:24:58.587Z,2.40
2022-12-08T11:26:34.492Z,2.34
2022-12-08T11:28:10.494Z,2.47
2022-12-08T11:29:42.106Z,2.34
2022-12-08T11:31:21.047Z,2.43
2022-12-08T11:32:54.208Z,2.45
2022-12-08T11:34:30.605Z,2.40
2022-12-08T11:36:03.770Z,2.39
2022-12-08T11:37:37.601Z,2.43
2022-12-08T11:39:09.614Z,2.50
2022-12-08T11:40:42.441Z,2.49
2022-12-08T11:42:14.782Z,2.47
2022-12-08T11:43:50.764Z,2.42
2022-12-08T11:45:24.771Z,2.47
2022-12-08T11:46:59.739Z,2.48
2022-12-08T11:48:33.958Z,2.41
2022-12-08T11:50:19.493Z,2.60
2022-12-08T11:52:27.951Z,2.83
2022-12-08T11:54:41.508Z,2.87
2022-12-08T11:56:16.341Z,2.86
2022-12-08T12:01:59.781Z,2.93
2022-12-08T12:03:33.912Z,3.03
2022-12-08T12:05:07.993Z,3.10
2022-12-08T12:07:06.814Z,2.82
2022-12-08T12:08:44.303Z,2.76
2022-12-08T12:10:34.441Z,2.90
2022-12-08T12:12:16.672Z,2.99
2022-12-08T12:13:56.168Z,3.02
2022-12-08T12:15:55.333Z,2.91
2022-12-08T12:17:43.097Z,2.94
2022-12-08T12:19:15.535Z,3.00
2022-12-08T12:20:49.873Z,3.00
2022-12-08T12:22:21.791Z,2.92
2022-12-08T12:23:54.384Z,2.68
2022-12-08T12:25:26.092Z,2.70
2022-12-08T12:27:00.301Z,2.80
2022-12-08T12:28:40.037Z,2.79
2022-12-08T12:30:18.753Z,2.79
2022-12-08T12:31:52.952Z,2.79
2022-12-08T12:33:24.560Z,2.88
2022-12-08T12:34:57.247Z,2.93
2022-12-08T12:36:29.018Z,2.88
2022-12-08T12:38:02.729Z,2.91
2022-12-08T12:39:44.304Z,2.90
2022-12-08T12:41:18.709Z,2.83
2022-12-08T12:43:12.577Z,2.75
2022-12-08T12:44:44.293Z,2.70
2022-12-08T12:46:38.540Z,2.80
2022-12-08T12:48:21.489Z,2.92
2022-12-08T12:51:18.193Z,2.88
2022-12-08T12:52:50.071Z,2.78
2022-12-08T12:54:22.362Z,2.75
2022-12-08T12:55:54.995Z,2.83
2022-12-08T12:57:35.400Z,2.89
2022-12-08T12:59:36.139Z,2.93
2022-12-08T13:01:56.729Z,2.76
2022-12-08T13:03:29.770Z,2.78
2022-12-08T13:05:03.460Z,2.83
2022-12-08T13:06:37.728Z,2.89
2022-12-08T13:08:19.425Z,2.87
2022-12-08T13:09:59.052Z,2.85
2022-12-08T13:11:30.802Z,2.97
2022-12-08T13:13:07.929Z,3.15
2022-12-08T13:14:46.446Z,3.03
2022-12-08T13:16:24.336Z,3.09
2022-12-08T13:17:56.031Z,3.15
2022-12-08T13:19:31.295Z,3.04
2022-12-08T13:21:04.366Z,3.09
2022-12-08T13:23:13.463Z,3.06
2022-12-08T13:24:46.279Z,3.22
2022-12-08T13:26:19.720Z,3.13
2022-12-08T13:27:54.295Z,3.10
2022-12-08T13:29:27.252Z,3.13
2022-12-08T13:30:59.449Z,3.15
2022-12-08T13:33:17.113Z,3.11
2022-12-08T13:34:49.842Z,3.16
2022-12-08T13:36:22.391Z,3.11
2022-12-08T13:37:55.395Z,2.97
2022-12-08T13:39:29.374Z,2.94
2022-12-08T13:41:01.695Z,2.92
2022-12-08T13:42:36.095Z,2.82
2022-12-08T13:48:30.267Z,2.91
2022-12-08T13:54:45.447Z,2.75
2022-12-08T13:57:32.874Z,2.99
2022-12-08T13:59:08.907Z,2.93
2022-12-08T14:00:40.564Z,2.86
2022-12-08T14:02:16.491Z,2.71
2022-12-08T14:04:12.824Z,2.73
2022-12-08T14:06:11.569Z,2.73
2022-12-08T14:07:35.223Z,2.63
2022-12-08T14:09:11.015Z,2.59
2022-12-08T14:10:43.133Z,2.59
2022-12-08T14:12:18.129Z,2.62
2022-12-08T14:13:49.765Z,2.62
2022-12-08T14:15:21.613Z,2.60
2022-12-08T14:16:54.112Z,2.65
2022-12-08T14:18:27.534Z,2.73
2022-12-08T14:20:00.127Z,2.58
2022-12-08T14:21:36.159Z,2.54
2022-12-08T14:23:10.474Z,2.54
2022-12-08T14:24:44.449Z,2.57
2022-12-08T14:26:16.131Z,2.55
2022-12-08T14:27:47.796Z,2.51
2022-12-08T14:29:41.171Z,2.46
2022-12-08T14:31:14.575Z,2.43
2022-12-08T14:32:48.104Z,2.42
2022-12-08T14:34:56.308Z,2.41
2022-12-08T14:36:29.031Z,2.37
2022-12-08T14:38:02.823Z,2.35
2022-12-08T14:39:34.542Z,2.35
2022-12-08T14:41:06.790Z,2.30
2022-12-08T14:42:42.736Z,2.33
2022-12-08T14:44:21.278Z,2.35
2022-12-08T14:46:01.421Z,2.31
2022-12-08T14:47:33.998Z,2.26
2022-12-08T14:49:05.633Z,2.24
2022-12-08T14:50:41.796Z,2.34
2022-12-08T14:52:13.509Z,2.24
2022-12-08T14:53:47.549Z,2.22
2022-12-08T14:55:19.487Z,2.12
2022-12-08T14:56:51.873Z,2.07
2022-12-08T14:58:27.834Z,2.08
2022-12-08T15:00:09.695Z,2.10
2022-12-08T15:01:44.404Z,2.16
2022-12-08T15:03:16.160Z,2.11
2022-12-08T15:04:48.734Z,2.03
2022-12-08T15:06:20.766Z,2.01
2022-12-08T15:07:53.478Z,1.87
2022-12-08T15:09:31.231Z,1.96
2022-12-08T15:11:25.250Z,1.87
2022-12-08T15:12:58.475Z,1.98
2022-12-08T15:14:31.549Z,2.06
2022-12-08T15:16:18.266Z,1.91
2022-12-08T15:17:51.563Z,1.87
2022-12-08T15:19:30.446Z,1.90
2022-12-08T15:21:02.982Z,1.96
2022-12-08T15:22:34.677Z,1.86
2022-12-08T15:24:06.460Z,1.83
2022-12-08T15:25:39.463Z,1.82
2022-12-08T15:27:11.695Z,1.76
2022-12-08T15:28:43.341Z,1.79
2022-12-08T15:30:15.596Z,1.80
2022-12-08T15:31:47.388Z,1.73
2022-12-08T15:33:19.458Z,1.73
2022-12-08T15:34:51.136Z,1.70
2022-12-08T15:36:22.888Z,1.65
2022-12-08T15:37:54.596Z,1.66
2022-12-08T15:39:32.638Z,1.60
2022-12-08T15:41:09.058Z,1.55
2022-12-08T15:42:44.742Z,1.56
2022-12-08T15:44:16.419Z,1.68
2022-12-08T15:45:58.461Z,1.61
2022-12-08T15:47:34.068Z,1.63
2022-12-08T15:49:05.708Z,1.45
2022-12-08T15:50:37.330Z,1.49
2022-12-08T15:52:12.696Z,1.51
2022-12-08T15:53:44.297Z,1.42
2022-12-08T15:55:16.481Z,1.31
2022-12-08T15:57:17.860Z,1.31
2022-12-08T15:58:53.624Z,1.19
2022-12-08T16:02:22.888Z,1.30
2022-12-08T16:06:20.134Z,1.37
2022-12-08T16:07:39.511Z,1.27
2022-12-08T16:09:15.237Z,1.41
2022-12-08T16:11:29.156Z,1.38
2022-12-08T16:13:55.430Z,1.40
2022-12-08T16:16:43.377Z,1.35
2022-12-08T16:18:23.147Z,1.30
2022-12-08T16:19:54.940Z,1.23
2022-12-08T16:22:12.114Z,1.18
2022-12-08T16:23:41.630Z,1.17
2022-12-08T16:25:22.441Z,1.25
2022-12-08T16:28:55.050Z,1.17
2022-12-08T16:30:26.894Z,1.11
2022-12-08T16:31:58.704Z,1.07
2022-12-08T16:33:30.458Z,1.15
2022-12-08T16:35:02.315Z,1.07
2022-12-08T16:36:34.093Z,1.13
2022-12-08T16:38:05.849Z,1.17
2022-12-08T16:39:42.353Z,1.20
2022-12-08T16:41:35.643Z,1.32
2022-12-08T16:43:07.480Z,1.38
2022-12-08T16:44:41.994Z,1.35
2022-12-08T16:46:31.773Z,1.28
2022-12-08T16:48:04.139Z,1.24
2022-12-08T16:49:37.002Z,1.19
2022-12-08T16:51:11.392Z,1.19
2022-12-08T16:52:43.080Z,1.21
2022-12-08T16:54:14.718Z,1.17
2022-12-08T16:55:47.099Z,1.12
2022-12-08T16:57:18.739Z,1.20
2022-12-08T16:58:50.422Z,1.23
2022-12-08T17:00:24.457Z,1.20
2022-12-08T17:01:59.213Z,1.14
2022-12-08T17:03:31.310Z,1.09
2022-12-08T17:05:03.255Z,1.03
2022-12-08T17:06:34.941Z,1.05
2022-12-08T17:08:06.956Z,0.99
2022-12-08T17:09:38.710Z,0.98
2022-12-08T17:11:12.616Z,0.98
2022-12-08T17:12:44.234Z,0.98
2022-12-08T17:14:15.863Z,1.02
2022-12-08T17:15:48.957Z,0.99
2022-12-08T17:17:20.619Z,0.85
2022-12-08T17:18:53.511Z,0.61
2022-12-08T17:20:27.051Z,0.54
2022-12-08T17:21:58.848Z,0.31
2022-12-08T17:23:33.324Z,0.47
2022-12-08T17:25:05.747Z,0.44
2022-12-08T17:26:37.452Z,0.40
2022-12-08T17:28:09.137Z,0.26
2022-12-08T17:29:43.264Z,0.35
2022-12-08T17:31:16.521Z,0.37
2022-12-08T17:32:48.443Z,0.39
2022-12-08T17:34:20.124Z,0.25
2022-12-08T17:35:52.806Z,0.43
2022-12-08T17:37:26.721Z,0.36
2022-12-08T17:38:58.999Z,0.35
2022-12-08T17:40:30.626Z,0.29
2022-12-08T17:42:04.208Z,0.20
2022-12-08T17:43:36.013Z,0.23
2022-12-08T17:45:08.750Z,0.33
2022-12-08T17:46:49.114Z,0.23
2022-12-08T17:48:24.015Z,0.17
2022-12-08T17:49:56.370Z,0.19
2022-12-08T17:51:28.062Z,0.13
2022-12-08T17:53:02.838Z,0.16
2022-12-08T17:54:35.810Z,0.12
2022-12-08T17:56:13.271Z,-0.08
2022-12-08T17:57:44.912Z,-0.14
2022-12-08T17:59:16.641Z,-0.14
2022-12-08T18:00:48.389Z,-0.15
2022-12-08T18:02:21.455Z,-0.29
2022-12-08T18:03:53.134Z,-0.12
2022-12-08T18:05:24.802Z,-0.33
2022-12-08T18:06:59.346Z,-0.25
2022-12-08T18:08:31.019Z,-0.09
2022-12-08T18:10:02.962Z,-0.05
2022-12-08T18:11:34.753Z,-0.24
2022-12-08T18:13:06.596Z,-0.22
2022-12-08T18:14:38.279Z,-0.22
2022-12-08T18:16:10.262Z,-0.19
2022-12-08T18:17:43.246Z,-0.20
2022-12-08T18:19:15.012Z,-0.29
2022-12-08T18:20:46.748Z,-0.23
2022-12-08T18:22:18.448Z,-0.38
2022-12-08T18:23:50.366Z,-0.23
2022-12-08T18:25:22.014Z,-0.11
2022-12-08T18:26:55.137Z,-0.11
2022-12-08T18:28:26.788Z,-0.08
2022-12-08T18:29:58.428Z,-0.04
2022-12-08T18:31:30.113Z,0.02
2022-12-08T18:33:04.834Z,0.09
2022-12-08T18:34:36.481Z,0.06
2022-12-08T18:36:09.237Z,-0.02
2022-12-08T18:37:40.995Z,-0.19
2022-12-08T18:39:21.247Z,-0.03
2022-12-08T18:40:52.965Z,-0.06
2022-12-08T18:42:24.681Z,-0.14
2022-12-08T18:43:57.131Z,-0.28
2022-12-08T18:45:28.842Z,-0.28
2022-12-08T18:47:00.494Z,-0.15
2022-12-08T18:48:34.095Z,-0.08
2022-12-08T18:50:07.719Z,-0.05
2022-12-08T18:51:39.542Z,-0.02
2022-12-08T18:53:11.177Z,-0.02
2022-12-08T18:55:05.191Z,-0.03
2022-12-08T18:56:37.269Z,-0.07
2022-12-08T18:58:10.849Z,-0.17
2022-12-08T18:59:44.051Z,-0.33
2022-12-08T19:01:15.898Z,-0.21
2022-12-08T19:02:47.837Z,-0.22
2022-12-08T19:04:28.345Z,-0.22
2022-12-08T19:06:03.993Z,-0.21
2022-12-08T19:07:35.716Z,-0.16
2022-12-08T19:09:07.436Z,-0.12
2022-12-08T19:10:39.190Z,-0.10
2022-12-08T19:12:13.019Z,-0.12
2022-12-08T19:13:44.643Z,-0.34
2022-12-08T19:15:16.332Z,-0.27
2022-12-08T19:16:47.953Z,-0.13
2022-12-08T19:18:19.595Z,-0.27
2022-12-08T19:19:52.580Z,-0.22
2022-12-08T19:21:24.757Z,-0.37
2022-12-08T19:22:56.411Z,-0.18
2022-12-08T19:24:28.179Z,-0.05
2022-12-08T19:25:59.809Z,-0.04
2022-12-08T19:27:34.069Z,0.01
2022-12-08T19:29:05.832Z,-0.03
2022-12-08T19:30:40.244Z,-0.10
2022-12-08T19:32:12.103Z,-0.11
2022-12-08T19:33:43.766Z,-0.08
2022-12-08T19:35:19.246Z,-0.10
2022-12-08T19:36:50.943Z,-0.32
2022-12-08T19:38:25.346Z,-0.43
2022-12-08T19:40:15.881Z,-0.49
2022-12-08T19:42:06.073Z,-0.47
2022-12-08T19:43:56.514Z,-0.68
2022-12-08T19:45:28.285Z,-0.32
2022-12-08T19:47:00.193Z,-0.41
2022-12-08T19:48:31.950Z,-0.23
2022-12-08T19:50:22.389Z,-0.27
2022-12-08T19:51:55.422Z,-0.29
2022-12-08T19:53:27.132Z,-0.26
2022-12-08T19:55:01.979Z,-0.25
2022-12-08T19:56:33.734Z,-0.23
2022-12-08T19:58:05.811Z,-0.08
2022-12-08T19:59:38.049Z,-0.21
2022-12-08T20:01:09.789Z,-0.37
2022-12-08T20:02:41.674Z,-0.41
2022-12-08T20:04:13.663Z,-0.26
2022-12-08T20:05:45.639Z,-0.18
2022-12-08T20:07:18.681Z,-0.11
2022-12-08T20:08:50.995Z,-0.13
2022-12-08T20:10:33.606Z,-0.27
2022-12-08T20:12:06.089Z,-0.22
2022-12-08T20:13:40.849Z,-0.30
2022-12-08T20:15:12.577Z,-0.24
2022-12-08T20:16:44.351Z,-0.21
2022-12-08T20:18:16.270Z,-0.20
2022-12-08T20:19:48.011Z,-0.33
2022-12-08T20:21:20.787Z,-0.35
2022-12-08T20:22:53.807Z,-0.40
2022-12-08T20:24:25.750Z,-0.35
2022-12-08T20:25:57.487Z,-0.33
2022-12-08T20:27:29.256Z,-0.37
2022-12-08T20:29:00.968Z,-0.43
2022-12-08T20:30:35.624Z,-0.29
2022-12-08T20:32:07.409Z,-0.16
2022-12-08T20:33:39.180Z,-0.09
2022-12-08T20:35:10.889Z,-0.20
2022-12-08T20:36:42.829Z,-0.27
2022-12-08T20:38:16.113Z,-0.19
2022-12-08T20:39:47.841Z,-0.25
2022-12-08T20:41:19.613Z,-0.34
2022-12-08T20:42:52.181Z,-0.30
2022-12-08T20:44:23.824Z,-0.34
2022-12-08T20:45:55.576Z,-0.27
2022-12-08T20:47:27.401Z,-0.20
2022-12-08T20:49:01.251Z,-0.16
2022-12-08T20:50:32.999Z,-0.16
2022-12-08T20:52:05.281Z,-0.19
2022-12-08T20:53:38.323Z,-0.21
2022-12-08T20:55:10.253Z,-0.20
2022-12-08T20:56:47.942Z,-0.12
2022-12-08T20:58:20.236Z,-0.03
2022-12-08T20:59:52.240Z,-0.14
2022-12-08T21:01:24.363Z,-0.14
2022-12-08T21:02:57.045Z,-0.21
2022-12-08T21:04:35.124Z,-0.18
2022-12-08T21:06:07.461Z,-0.14
2022-12-08T21:07:39.430Z,-0.12
2022-12-08T21:09:12.651Z,-0.09
2022-12-08T21:10:44.597Z,-0.01
2022-12-08T21:12:16.450Z,-0.11
2022-12-08T21:13:48.232Z,-0.13
2022-12-08T21:15:19.894Z,-0.06
2022-12-08T21:16:51.729Z,-0.08
2022-12-08T21:18:23.580Z,-0.03